createdAt,value
2022-10-14T00:02:13.480Z,1.65
2022-10-14T00:05:02.015Z,1.85
2022-10-14T00:07:50.477Z,1.73
2022-10-14T00:10:41.106Z,1.55
2022-10-14T00:13:31.000Z,1.88
2022-10-14T00:16:21.227Z,1.73
2022-10-14T00:19:09.821Z,1.38
2022-10-14T00:21:58.222Z,1.60
2022-10-14T00:24:46.678Z,1.40
2022-10-14T00:27:36.438Z,1.50
2022-10-14T00:30:24.860Z,1.85
2022-10-14T00:33:13.291Z,1.50
2022-10-14T00:36:03.893Z,1.65
2022-10-14T00:38:53.207Z,1.20
2022-10-14T00:41:41.806Z,1.55
2022-10-14T00:45:03.864Z,2.10
2022-10-14T00:47:53.655Z,1.67
2022-10-14T00:50:44.895Z,1.58
2022-10-14T00:53:33.782Z,1.60
2022-10-14T00:56:25.090Z,1.90
2022-10-14T00:59:13.693Z,1.85
2022-10-14T01:02:03.549Z,1.92
2022-10-14T01:04:51.936Z,1.98
2022-10-14T01:07:47.318Z,1.40
2022-10-14T01:10:42.515Z,1.60
2022-10-14T01:13:33.793Z,1.73
2022-10-14T01:16:26.659Z,1.30
2022-10-14T01:19:34.064Z,1.17
2022-10-14T01:22:25.278Z,1.67
2022-10-14T01:25:20.983Z,1.13
2022-10-14T01:28:20.927Z,1.40
2022-10-14T01:31:13.266Z,1.63
2022-10-14T01:34:04.068Z,1.55
2022-10-14T01:36:56.485Z,1.42
2022-10-14T01:39:47.767Z,1.58
2022-10-14T01:42:38.062Z,2.15
2022-10-14T01:45:27.204Z,1.50
2022-10-14T01:48:19.267Z,1.70
2022-10-14T01:51:12.133Z,1.70
2022-10-14T01:54:03.989Z,1.55
2022-10-14T01:56:54.610Z,1.30
2022-10-14T01:59:43.999Z,1.58
2022-10-14T02:02:32.427Z,1.40
2022-10-14T02:05:24.442Z,1.73
2022-10-14T02:08:17.555Z,1.65
2022-10-14T02:11:10.307Z,1.00
2022-10-14T02:14:11.277Z,1.17
2022-10-14T02:17:02.350Z,1.17
2022-10-14T02:19:52.549Z,1.35
2022-10-14T02:22:44.209Z,1.42
2022-10-14T02:25:36.625Z,1.65
2022-10-14T02:28:27.148Z,1.50
2022-10-14T02:31:18.337Z,1.58
2022-10-14T02:34:10.846Z,1.58
2022-10-14T02:37:00.300Z,1.50
2022-10-14T02:39:54.098Z,1.50
2022-10-14T02:42:42.612Z,1.33
2022-10-14T02:45:31.125Z,1.60
2022-10-14T02:48:19.531Z,1.38
2022-10-14T02:51:07.945Z,1.10
2022-10-14T02:53:57.478Z,1.42
2022-10-14T02:56:47.244Z,1.77
2022-10-14T02:59:36.722Z,1.30
2022-10-14T03:02:25.132Z,1.20
2022-10-14T03:05:13.710Z,1.55
2022-10-14T03:08:02.160Z,1.10
2022-10-14T03:10:50.592Z,1.23
2022-10-14T03:13:40.353Z,1.65
2022-10-14T03:16:31.131Z,1.15
2022-10-14T03:19:19.575Z,1.20
2022-10-14T03:22:07.972Z,1.30
2022-10-14T03:24:56.385Z,1.60
2022-10-14T03:27:45.061Z,1.23
2022-10-14T03:30:34.794Z,1.08
2022-10-14T03:33:25.990Z,1.10
2022-10-14T03:36:15.270Z,1.10
2022-10-14T03:39:03.710Z,1.13
2022-10-14T03:41:54.576Z,1.30
2022-10-14T03:44:43.468Z,1.10
2022-10-14T03:47:33.254Z,1.20
2022-10-14T03:50:21.714Z,1.30
2022-10-14T03:53:10.101Z,1.23
2022-10-14T03:55:58.902Z,1.20
2022-10-14T03:58:47.254Z,1.35
2022-10-14T04:01:35.790Z,1.50
2022-10-14T04:04:25.560Z,1.40
2022-10-14T04:07:14.019Z,8.18
2022-10-14T04:10:02.431Z,9.60
2022-10-14T04:12:52.221Z,11.25
2022-10-14T04:15:40.597Z,10.48
2022-10-14T04:18:29.088Z,10.07
2022-10-14T04:21:18.826Z,8.82
2022-10-14T04:24:08.500Z,9.05
2022-10-14T04:26:57.159Z,8.88
2022-10-14T04:29:47.111Z,8.60
2022-10-14T04:32:35.861Z,7.50
2022-10-14T04:35:24.261Z,7.38
2022-10-14T04:38:14.047Z,7.32
2022-10-14T04:41:02.693Z,7.70
2022-10-14T04:43:51.095Z,7.38
2022-10-14T04:46:39.539Z,6.75
2022-10-14T04:49:28.043Z,6.18
2022-10-14T04:52:16.597Z,6.55
2022-10-14T04:55:07.679Z,7.22
2022-10-14T04:57:56.177Z,6.63
2022-10-14T05:00:44.775Z,7.03
2022-10-14T05:03:33.266Z,6.82
2022-10-14T05:06:21.620Z,6.93
2022-10-14T05:09:10.207Z,7.60
2022-10-14T05:11:59.909Z,7.60
2022-10-14T05:14:48.457Z,6.70
2022-10-14T05:17:39.272Z,7.13
2022-10-14T05:20:27.772Z,7.10
2022-10-14T05:23:16.326Z,7.30
2022-10-14T05:26:04.757Z,7.20
2022-10-14T05:28:54.678Z,7.70
2022-10-14T05:31:43.107Z,6.53
2022-10-14T05:34:31.589Z,8.93
2022-10-14T05:37:21.323Z,8.82
2022-10-14T05:40:11.627Z,7.85
2022-10-14T05:43:00.070Z,8.43
2022-10-14T05:45:49.864Z,9.25
2022-10-14T05:48:41.383Z,9.38
2022-10-14T05:51:29.825Z,8.57
2022-10-14T05:54:18.468Z,7.60
2022-10-14T05:57:06.959Z,8.93
2022-10-14T05:59:55.563Z,8.10
2022-10-14T06:02:45.396Z,7.85
2022-10-14T06:05:38.379Z,8.18
2022-10-14T06:08:27.469Z,8.50
2022-10-14T06:11:15.894Z,7.65
2022-10-14T06:14:04.788Z,9.10
2022-10-14T06:16:54.442Z,9.15
2022-10-14T06:19:44.288Z,10.00
2022-10-14T06:22:32.733Z,8.65
2022-10-14T06:25:21.640Z,9.77
2022-10-14T06:28:10.290Z,9.50
2022-10-14T06:31:00.826Z,9.27
2022-10-14T06:33:49.192Z,8.60
2022-10-14T06:36:38.944Z,9.23
2022-10-14T06:39:29.711Z,10.30
2022-10-14T06:42:20.362Z,9.70
2022-10-14T06:45:09.258Z,10.18
2022-10-14T06:47:58.237Z,9.27
2022-10-14T06:50:46.665Z,9.38
2022-10-14T06:53:36.415Z,9.98
2022-10-14T06:56:25.094Z,9.80
2022-10-14T06:59:15.672Z,10.85
2022-10-14T07:02:04.121Z,9.48
2022-10-14T07:04:52.745Z,9.63
2022-10-14T07:07:41.229Z,8.90
2022-10-14T07:10:31.033Z,8.82
2022-10-14T07:13:19.525Z,8.20
2022-10-14T07:16:08.126Z,9.27
2022-10-14T07:18:56.627Z,8.85
2022-10-14T07:21:46.673Z,9.27
2022-10-14T07:24:35.264Z,9.60
2022-10-14T07:27:25.364Z,9.32
2022-10-14T07:30:16.773Z,10.85
2022-10-14T07:33:06.624Z,22.30
2022-10-14T07:35:55.155Z,17.35
2022-10-14T07:38:46.508Z,16.05
2022-10-14T07:41:35.240Z,13.20
2022-10-14T07:44:27.319Z,15.90
2022-10-14T07:47:16.087Z,13.13
2022-10-14T07:50:04.961Z,13.10
2022-10-14T07:52:56.616Z,13.15
2022-10-14T07:55:52.134Z,12.30
2022-10-14T07:58:44.316Z,12.82
2022-10-14T08:01:34.590Z,11.65
2022-10-14T08:04:23.180Z,11.57
2022-10-14T08:07:14.216Z,11.93
2022-10-14T08:10:02.927Z,11.73
2022-10-14T08:12:51.976Z,10.93
2022-10-14T08:15:43.258Z,11.05
2022-10-14T08:18:33.305Z,10.35
2022-10-14T08:21:22.389Z,11.07
2022-10-14T08:24:13.824Z,11.48
2022-10-14T08:27:02.269Z,12.32
2022-10-14T08:29:50.877Z,11.60
2022-10-14T08:32:39.313Z,10.82
2022-10-14T08:35:29.273Z,10.55
2022-10-14T08:38:19.078Z,10.80
2022-10-14T08:41:26.498Z,9.98
2022-10-14T08:44:19.908Z,9.85
2022-10-14T08:47:14.066Z,10.25
2022-10-14T08:50:04.360Z,9.60
2022-10-14T08:52:55.939Z,9.40
2022-10-14T08:55:46.486Z,10.32
2022-10-14T08:58:38.465Z,9.85
2022-10-14T09:01:29.847Z,9.70
2022-10-14T09:04:18.516Z,9.60
2022-10-14T09:07:07.143Z,10.02
2022-10-14T09:10:00.269Z,10.77
2022-10-14T09:12:49.030Z,10.18
2022-10-14T09:15:40.837Z,9.25
2022-10-14T09:18:34.419Z,9.95
2022-10-14T09:21:48.099Z,9.90
2022-10-14T09:24:39.113Z,9.85
2022-10-14T09:27:34.144Z,8.85
2022-10-14T09:30:22.736Z,9.13
2022-10-14T09:33:13.597Z,9.73
2022-10-14T09:36:02.251Z,9.52
2022-10-14T09:38:52.577Z,9.68
2022-10-14T09:41:41.254Z,9.23
2022-10-14T09:44:31.061Z,9.38
2022-10-14T09:47:19.612Z,8.93
2022-10-14T09:50:10.335Z,9.90
2022-10-14T09:53:03.535Z,8.95
2022-10-14T09:55:55.307Z,9.02
2022-10-14T09:58:45.064Z,9.05
2022-10-14T10:01:39.163Z,10.02
2022-10-14T10:04:34.515Z,10.60
2022-10-14T10:07:30.493Z,9.13
2022-10-14T10:10:21.038Z,9.60
2022-10-14T10:13:23.129Z,8.98
2022-10-14T10:16:21.518Z,8.48
2022-10-14T10:19:28.375Z,7.57
2022-10-14T10:25:21.322Z,7.40
2022-10-14T10:28:18.102Z,8.48
2022-10-14T10:31:15.894Z,7.18
2022-10-14T10:34:12.729Z,8.00
2022-10-14T10:37:05.928Z,7.90
2022-10-14T10:40:20.130Z,7.15
2022-10-14T10:43:37.380Z,7.35
2022-10-14T10:46:36.841Z,6.88
2022-10-14T10:49:40.616Z,6.25
2022-10-14T10:52:37.022Z,6.40
2022-10-14T10:55:35.451Z,4.45
2022-10-14T10:58:36.797Z,4.32
2022-10-14T11:01:37.546Z,4.05
2022-10-14T11:04:32.174Z,4.43
2022-10-14T11:07:41.841Z,3.10
2022-10-14T11:10:53.144Z,2.75
2022-10-14T11:13:48.375Z,2.45
2022-10-14T11:16:42.152Z,2.40
2022-10-14T11:19:35.892Z,1.90
2022-10-14T11:22:34.169Z,1.35
2022-10-14T11:25:40.289Z,1.33
2022-10-14T11:28:38.755Z,1.20
2022-10-14T11:31:33.105Z,1.55
2022-10-14T11:34:32.633Z,0.80
2022-10-14T11:37:30.953Z,1.42
2022-10-14T11:40:23.794Z,0.93
2022-10-14T11:43:22.345Z,1.08
2022-10-14T11:46:13.507Z,0.77
2022-10-14T11:49:05.759Z,0.90
2022-10-14T11:51:56.552Z,0.90
2022-10-14T11:54:48.431Z,0.60
2022-10-14T11:57:39.693Z,1.20
2022-10-14T12:00:31.953Z,0.63
2022-10-14T12:03:25.834Z,0.88
2022-10-14T12:06:18.217Z,0.60
2022-10-14T12:09:13.643Z,0.60
2022-10-14T12:12:05.553Z,0.77
2022-10-14T12:14:58.275Z,0.57
2022-10-14T12:17:48.634Z,0.70
2022-10-14T12:20:44.699Z,0.47
2022-10-14T12:23:36.155Z,0.82
2022-10-14T12:26:41.672Z,0.57
2022-10-14T12:29:33.218Z,0.57
2022-10-14T12:32:27.616Z,0.95
2022-10-14T12:35:49.044Z,0.95
2022-10-14T12:38:37.687Z,0.90
2022-10-14T12:41:40.118Z,0.63
2022-10-14T12:44:36.169Z,1.00
2022-10-14T12:47:28.955Z,0.60
2022-10-14T12:50:29.572Z,0.70
2022-10-14T12:53:24.602Z,0.70
2022-10-14T12:56:31.966Z,0.80
2022-10-14T12:59:25.485Z,0.70
2022-10-14T13:02:19.906Z,0.80
2022-10-14T13:05:11.151Z,1.08
2022-10-14T13:08:14.782Z,0.63
2022-10-14T13:11:15.266Z,0.95
2022-10-14T13:14:03.832Z,0.98
2022-10-14T13:16:59.771Z,0.90
2022-10-14T13:19:48.325Z,1.00
2022-10-14T13:22:41.231Z,1.13
2022-10-14T13:25:30.625Z,0.60
2022-10-14T13:28:26.016Z,1.25
2022-10-14T13:31:17.869Z,1.63
2022-10-14T13:34:14.958Z,1.88
2022-10-14T13:37:15.769Z,3.15
2022-10-14T13:40:18.932Z,3.45
2022-10-14T13:43:15.051Z,3.78
2022-10-14T13:46:07.758Z,6.13
2022-10-14T13:48:58.773Z,5.55
2022-10-14T13:51:49.891Z,6.45
2022-10-14T13:54:38.472Z,7.53
2022-10-14T14:00:40.633Z,6.38
2022-10-14T14:03:33.877Z,6.30
2022-10-14T14:06:25.910Z,8.90
2022-10-14T14:09:20.808Z,8.88
2022-10-14T14:12:09.474Z,9.40
2022-10-14T14:14:59.996Z,10.27
2022-10-14T14:17:48.723Z,9.95
2022-10-14T14:20:39.415Z,9.95
2022-10-14T14:23:28.369Z,11.00
2022-10-14T14:26:20.970Z,10.38
2022-10-14T14:29:19.127Z,10.07
2022-10-14T14:32:08.571Z,10.60
2022-10-14T14:34:57.665Z,10.05
2022-10-14T14:37:55.764Z,10.43
2022-10-14T14:40:45.713Z,10.07
2022-10-14T14:43:37.523Z,9.57
2022-10-14T14:46:33.262Z,10.18
2022-10-14T14:49:24.469Z,9.10
2022-10-14T14:52:13.541Z,9.52
2022-10-14T14:55:03.394Z,9.52
2022-10-14T14:57:58.197Z,8.57
2022-10-14T15:00:47.279Z,8.93
2022-10-14T15:04:13.686Z,8.98
2022-10-14T15:07:04.808Z,9.27
2022-10-14T15:09:55.005Z,9.02
2022-10-14T15:12:53.979Z,9.27
2022-10-14T15:15:54.107Z,8.95
2022-10-14T15:18:43.574Z,9.48
2022-10-14T15:21:32.033Z,9.38
2022-10-14T15:24:20.516Z,9.75
2022-10-14T15:27:34.788Z,8.48
2022-10-14T15:30:35.761Z,8.82
2022-10-14T15:33:25.486Z,9.18
2022-10-14T15:36:14.185Z,8.75
2022-10-14T15:39:02.744Z,8.52
2022-10-14T15:41:51.323Z,8.85
2022-10-14T15:44:39.758Z,8.80
2022-10-14T15:47:30.858Z,7.85
2022-10-14T15:50:21.189Z,9.70
2022-10-14T15:53:10.671Z,8.43
2022-10-14T15:56:00.178Z,8.52
2022-10-14T15:58:48.754Z,8.30
2022-10-14T16:01:39.825Z,8.00
2022-10-14T16:04:32.756Z,10.32
2022-10-14T16:07:21.447Z,10.40
2022-10-14T16:10:13.082Z,9.48
2022-10-14T16:13:01.702Z,9.70
2022-10-14T16:15:52.937Z,9.90
2022-10-14T16:18:41.488Z,10.13
2022-10-14T16:21:34.111Z,10.02
2022-10-14T16:24:25.451Z,9.93
2022-10-14T16:27:13.932Z,9.18
2022-10-14T16:30:02.326Z,9.20
2022-10-14T16:32:51.342Z,10.50
2022-10-14T16:35:39.811Z,9.50
2022-10-14T16:38:29.604Z,8.63
2022-10-14T16:41:18.598Z,9.75
2022-10-14T16:44:07.687Z,8.75
2022-10-14T16:47:15.207Z,8.13
2022-10-14T16:50:04.019Z,8.32
2022-10-14T16:53:10.481Z,7.45
2022-10-14T16:56:00.544Z,7.82
2022-10-14T16:58:48.981Z,6.90
2022-10-14T17:01:38.319Z,6.47
2022-10-14T17:04:27.331Z,6.72
2022-10-14T17:07:17.415Z,6.97
2022-10-14T17:10:06.814Z,6.90
2022-10-14T17:12:57.523Z,6.93
2022-10-14T17:15:45.927Z,6.63
2022-10-14T17:18:35.404Z,7.07
2022-10-14T17:21:24.278Z,5.55
2022-10-14T17:24:13.041Z,6.78
2022-10-14T17:27:04.558Z,6.45
2022-10-14T17:29:54.398Z,6.35
2022-10-14T17:32:42.819Z,5.97
2022-10-14T17:35:31.231Z,6.28
2022-10-14T17:38:19.618Z,5.70
2022-10-14T17:41:10.104Z,6.18
2022-10-14T17:44:01.324Z,5.95
2022-10-14T17:46:51.120Z,6.30
2022-10-14T17:49:39.671Z,4.72
2022-10-14T17:52:28.135Z,5.47
2022-10-14T17:58:10.257Z,5.30
2022-10-14T18:01:05.071Z,5.43
2022-10-14T18:03:55.605Z,5.53
2022-10-14T18:06:45.726Z,5.47
2022-10-14T18:09:34.652Z,5.18
2022-10-14T18:12:24.123Z,5.05
2022-10-14T18:15:14.772Z,4.50
2022-10-14T18:18:03.277Z,5.40
2022-10-14T18:20:56.963Z,5.25
2022-10-14T18:23:45.608Z,5.22
2022-10-14T18:26:34.724Z,5.40
2022-10-14T18:29:23.178Z,4.90
2022-10-14T18:32:14.905Z,5.05
2022-10-14T18:35:03.312Z,4.40
2022-10-14T18:37:53.147Z,4.65
2022-10-14T18:40:41.599Z,4.78
2022-10-14T18:43:30.725Z,4.32
2022-10-14T18:46:23.524Z,4.13
2022-10-14T18:49:13.129Z,4.78
2022-10-14T18:52:01.550Z,4.60
2022-10-14T18:54:51.348Z,4.32
2022-10-14T18:57:39.863Z,4.63
2022-10-14T19:00:28.287Z,4.38
2022-10-14T19:03:17.447Z,4.30
2022-10-14T19:06:06.733Z,4.50
2022-10-14T19:08:55.565Z,4.47
2022-10-14T19:11:47.778Z,4.75
2022-10-14T19:14:36.719Z,4.68
2022-10-14T19:17:25.217Z,3.85
2022-10-14T19:20:13.887Z,4.60
2022-10-14T19:23:02.616Z,3.70
2022-10-14T19:25:51.150Z,4.32
2022-10-14T19:28:43.080Z,4.60
2022-10-14T19:31:33.374Z,4.47
2022-10-14T19:34:25.810Z,3.95
2022-10-14T19:37:15.473Z,4.05
2022-10-14T19:40:04.070Z,4.05
2022-10-14T19:42:52.458Z,3.75
2022-10-14T19:45:45.661Z,3.97
2022-10-14T19:48:36.859Z,3.78
2022-10-14T19:51:25.693Z,3.50
2022-10-14T19:54:15.141Z,3.97
2022-10-14T19:57:03.670Z,3.42
2022-10-14T19:59:52.123Z,2.72
2022-10-14T20:02:42.161Z,3.03
2022-10-14T20:05:31.466Z,3.35
2022-10-14T20:08:19.927Z,3.10
2022-10-14T20:11:09.717Z,3.42
2022-10-14T20:13:58.335Z,3.35
2022-10-14T20:16:52.195Z,2.75
2022-10-14T20:19:44.898Z,3.50
2022-10-14T20:22:33.767Z,3.25
2022-10-14T20:25:22.202Z,2.97
2022-10-14T20:28:11.929Z,3.13
2022-10-14T20:31:00.472Z,3.70
2022-10-14T20:33:49.565Z,2.67
2022-10-14T20:36:40.130Z,2.80
2022-10-14T20:39:28.947Z,2.75
2022-10-14T20:42:19.752Z,3.10
2022-10-14T20:45:09.236Z,3.10
2022-10-14T20:47:57.889Z,3.30
2022-10-14T20:50:46.374Z,2.38
2022-10-14T20:53:36.337Z,2.45
2022-10-14T20:56:24.966Z,2.72
2022-10-14T20:59:14.872Z,2.88
2022-10-14T21:02:03.435Z,2.72
2022-10-14T21:04:52.941Z,2.72
2022-10-14T21:07:41.426Z,2.47
2022-10-14T21:10:31.339Z,2.45
2022-10-14T21:13:20.861Z,2.50
2022-10-14T21:16:16.943Z,2.90
2022-10-14T21:19:08.196Z,2.47
2022-10-14T21:21:56.758Z,2.30
2022-10-14T21:24:45.674Z,2.67
2022-10-14T21:27:36.878Z,2.30
2022-10-14T21:30:25.281Z,2.72
2022-10-14T21:33:14.335Z,2.55
2022-10-14T21:36:07.162Z,2.65
2022-10-14T21:38:57.001Z,2.15
2022-10-14T21:41:45.942Z,2.75
2022-10-14T21:44:36.053Z,2.55
2022-10-14T21:47:24.620Z,2.72
2022-10-14T21:50:15.830Z,2.08
2022-10-14T21:53:04.276Z,2.53
2022-10-14T21:55:53.646Z,2.17
2022-10-14T21:58:42.445Z,2.35
2022-10-14T22:01:32.468Z,1.60
2022-10-14T22:04:20.923Z,1.50
2022-10-14T22:07:10.711Z,2.28
2022-10-14T22:09:59.317Z,1.73
2022-10-14T22:12:47.760Z,1.70
2022-10-14T22:15:36.839Z,2.70
2022-10-14T22:18:26.713Z,1.65
2022-10-14T22:21:16.766Z,1.73
2022-10-14T22:26:54.477Z,1.35
2022-10-14T22:29:42.950Z,1.85
2022-10-14T22:32:31.370Z,1.45
2022-10-14T22:35:21.257Z,1.52
2022-10-14T22:38:09.739Z,1.40
2022-10-14T22:41:01.924Z,1.77
2022-10-14T22:43:51.922Z,1.27
2022-10-14T22:46:40.928Z,1.90
2022-10-14T22:49:29.969Z,1.98
2022-10-14T22:52:19.996Z,1.73
2022-10-14T22:55:10.309Z,1.45
2022-10-14T22:57:58.792Z,1.73
2022-10-14T23:00:47.664Z,1.70
2022-10-14T23:03:36.263Z,1.55
2022-10-14T23:06:25.060Z,1.33
2022-10-14T23:09:14.812Z,1.45
2022-10-14T23:12:03.290Z,1.70
2022-10-14T23:14:52.385Z,1.35
2022-10-14T23:17:40.878Z,1.42
2022-10-14T23:20:29.391Z,1.88
2022-10-14T23:23:17.935Z,1.95
2022-10-14T23:26:10.084Z,1.35
2022-10-14T23:28:59.846Z,1.55
2022-10-14T23:31:48.383Z,1.33
2022-10-14T23:34:36.805Z,1.58
2022-10-14T23:37:26.001Z,1.52
2022-10-14T23:40:15.279Z,1.50
2022-10-14T23:43:05.160Z,1.40
2022-10-14T23:45:53.652Z,1.45
2022-10-14T23:48:42.713Z,1.00
2022-10-14T23:51:31.235Z,1.60
2022-10-14T23:54:19.625Z,1.10
2022-10-14T23:57:08.061Z,1.30
2022-10-14T23:59:57.929Z,1.25
